Time;durP1;ratioP1;P1;durP2;ratioP2;P2;SDS_P1;SDS_P2;PMS_P1;PMS_P2;Temp;Humidity;BMP_temperature;BMP_pressure;BME280_temperature;BME280_humidity;BME280_pressure;Samples;Min_cycle;Max_cycle;Signal;HPM_P1;HPM_P2
2023/05/26 00:02:07;;;;;;;;;;;;;;;21.31;67.60;101520.91;5012583;28;20164;-84
2023/05/26 00:04:37;;;;;;;;;;;;;;;21.27;67.54;101524.16;5004964;28;19925;-84
2023/05/26 00:07:07;;;;;;;;;;;;;;;21.27;67.78;101522.28;5000431;28;19929;-85
2023/05/26 00:09:34;;;;;;;;;;;;;;;21.19;67.79;101514.28;4993988;28;20311;-84
2023/05/26 00:12:01;;;;;;;;;;;;;;;21.15;67.77;101512.97;4970030;28;20306;-84
2023/05/26 00:14:28;;;;;;;;;;;;;;;21.13;67.88;101510.44;4976969;28;19943;-84
2023/05/26 00:16:57;;;;;;;;;;;;;;;21.17;67.73;101510.09;4990068;28;19929;-85
2023/05/26 00:19:24;;;;;;;;;;;;;;;21.19;67.80;101508.00;4986477;28;19925;-84
2023/05/26 00:21:51;;;;;;;;;;;;;;;21.16;67.42;101503.81;4991914;28;19925;-84
2023/05/26 00:24:18;;;;;;;;;;;;;;;21.18;66.89;101500.94;4988413;28;20184;-84
2023/05/26 00:26:46;;;;;;;;;;;;;;;21.16;66.59;101501.13;5014813;28;19979;-84
2023/05/26 00:29:13;;;;;;;;;;;;;;;21.12;67.00;101506.06;5010338;28;19925;-84
2023/05/26 00:31:54;;;;;;;;;;;;;;;21.12;67.19;101505.22;5004594;28;20320;-84
2023/05/26 00:34:21;;;;;;;;;;;;;;;21.13;66.84;101502.34;5020811;28;20456;-83
2023/05/26 00:36:48;;;;;;;;;;;;;;;21.12;66.72;101497.97;5003010;28;19929;-83
2023/05/26 00:39:15;;;;;;;;;;;;;;;21.12;66.84;101508.75;4982513;28;20133;-82
2023/05/26 00:41:42;;;;;;;;;;;;;;;21.12;66.19;101506.06;5011553;28;20182;-83
2023/05/26 00:44:11;;;;;;;;;;;;;;;21.22;65.65;101499.56;5010032;28;20191;-83
2023/05/26 00:46:42;;;;;;;;;;;;;;;20.92;65.35;101443.69;5021492;28;20027;-84
2023/05/26 00:49:11;;;;;;;;;;;;;;;20.90;65.41;101448.41;5015470;28;19924;-85
2023/05/26 00:51:39;;;;;;;;;;;;;;;21.23;65.67;101498.53;5017612;28;19929;-85
2023/05/26 00:54:09;;;;;;;;;;;;;;;21.26;65.04;101498.16;4986699;28;19928;-84
2023/05/26 00:56:38;;;;;;;;;;;;;;;21.24;65.33;101500.19;5005844;28;19957;-83
2023/05/26 00:59:08;;;;;;;;;;;;;;;21.21;65.41;101500.56;5003095;28;19925;-83
2023/05/26 01:01:37;;;;;;;;;;;;;;;21.24;65.43;101505.59;4991312;28;19929;-85
2023/05/26 01:04:07;;;;;;;;;;;;;;;21.22;65.49;101502.28;5015250;28;19929;-83
2023/05/26 01:06:34;;;;;;;;;;;;;;;21.28;65.28;101510.44;5028532;28;20233;-84
2023/05/26 01:09:03;;;;;;;;;;;;;;;21.24;65.31;101509.16;5009516;28;20129;-84
2023/05/26 01:11:36;;;;;;;;;;;;;;;21.23;65.00;101509.34;4988334;28;19971;-85
2023/05/26 01:14:18;;;;;;;;;;;;;;;21.26;64.96;101508.94;4986491;28;20390;-84
2023/05/26 01:16:58;;;;;;;;;;;;;;;21.33;64.65;101507.19;5000056;28;19925;-84
2023/05/26 01:19:46;;;;;;;;;;;;;;;21.29;64.68;101500.50;4984447;28;20342;-84
2023/05/26 01:22:31;;;;;;;;;;;;;;;21.26;65.25;101504.41;4972176;28;19968;-84
2023/05/26 01:24:58;;;;;;;;;;;;;;;21.22;65.11;101513.06;5002124;28;20505;-84
2023/05/26 01:27:31;;;;;;;;;;;;;;;21.14;65.28;101505.88;5013837;28;19924;-84
2023/05/26 01:29:58;;;;;;;;;;;;;;;21.18;65.33;101506.34;5013741;28;20323;-84
2023/05/26 01:32:26;;;;;;;;;;;;;;;21.12;65.27;101508.75;5022236;28;19976;-84
2023/05/26 01:34:54;;;;;;;;;;;;;;;21.11;65.28;101500.84;5013261;28;20125;-84
2023/05/26 01:37:24;;;;;;;;;;;;;;;21.06;65.48;101504.09;5019681;28;19932;-84
2023/05/26 01:39:58;;;;;;;;;;;;;;;20.81;65.46;101451.38;5007152;28;20289;-85
2023/05/26 01:42:27;;;;;;;;;;;;;;;21.03;65.69;101501.75;5002189;28;19956;-85
2023/05/26 01:45:01;;;;;;;;;;;;;;;21.04;65.37;101506.13;4990059;28;19983;-83
2023/05/26 01:47:31;;;;;;;;;;;;;;;21.01;65.32;101501.09;4978849;28;20027;-84
2023/05/26 01:50:02;;;;;;;;;;;;;;;21.03;65.07;101501.75;4987593;28;20370;-85
2023/05/26 01:52:31;;;;;;;;;;;;;;;21.02;65.32;101502.81;4992992;28;20003;-84
2023/05/26 01:55:02;;;;;;;;;;;;;;;20.98;65.38;101496.06;4997146;28;20386;-85
2023/05/26 01:57:29;;;;;;;;;;;;;;;20.99;65.57;101496.91;5018735;28;20046;-85
2023/05/26 01:59:58;;;;;;;;;;;;;;;21.01;65.08;101494.88;5015926;28;19929;-85
2023/05/26 02:02:25;;;;;;;;;;;;;;;20.99;64.95;101496.91;5011288;28;20195;-84
2023/05/26 02:04:52;;;;;;;;;;;;;;;20.99;64.84;101486.94;5020628;28;19929;-85
2023/05/26 02:07:19;;;;;;;;;;;;;;;20.97;65.12;101493.56;4995491;28;20636;-85
2023/05/26 02:09:48;;;;;;;;;;;;;;;20.99;64.77;101495.03;5007008;28;20116;-84
2023/05/26 02:12:19;;;;;;;;;;;;;;;21.01;64.75;101495.69;5012309;28;20684;-83
2023/05/26 02:14:46;;;;;;;;;;;;;;;21.00;64.50;101498.59;5017371;28;19925;-83
2023/05/26 02:17:13;;;;;;;;;;;;;;;20.95;64.91;101488.34;4996970;28;20301;-84
2023/05/26 02:19:43;;;;;;;;;;;;;;;20.87;64.43;101473.06;4988513;28;20358;-86
2023/05/26 02:22:12;;;;;;;;;;;;;;;20.94;64.64;101494.75;4993497;28;20582;-83
2023/05/26 02:24:38;;;;;;;;;;;;;;;20.89;64.72;101491.78;4997124;28;20390;-84
2023/05/26 02:27:06;;;;;;;;;;;;;;;20.88;64.99;101495.50;4987592;28;19929;-85
2023/05/26 02:29:36;;;;;;;;;;;;;;;20.87;64.59;101494.66;5009450;28;20301;-84
2023/05/26 02:32:03;;;;;;;;;;;;;;;20.88;64.82;101498.19;5001926;28;20342;-83
2023/05/26 02:34:29;;;;;;;;;;;;;;;20.85;64.82;101498.53;5006652;28;20262;-84
2023/05/26 02:36:56;;;;;;;;;;;;;;;20.86;65.17;101492.97;5002959;28;20324;-84
2023/05/26 02:39:23;;;;;;;;;;;;;;;20.88;64.96;101490.94;4993229;28;20495;-84
2023/05/26 02:41:53;;;;;;;;;;;;;;;20.61;64.66;101440.28;4978906;28;19929;-83
2023/05/26 02:44:20;;;;;;;;;;;;;;;21.10;63.91;101494.59;4999176;28;20042;-83
2023/05/26 02:46:49;;;;;;;;;;;;;;;21.09;63.76;101487.53;4988286;28;20115;-85
2023/05/26 02:49:16;;;;;;;;;;;;;;;21.00;64.19;101485.94;4982099;28;20332;-85
2023/05/26 02:51:42;;;;;;;;;;;;;;;20.89;64.59;101487.22;5008528;28;20389;-85
2023/05/26 02:54:09;;;;;;;;;;;;;;;20.54;64.48;101440.13;4995365;28;20170;-84
2023/05/26 02:56:36;;;;;;;;;;;;;;;20.70;65.15;101491.28;5004782;28;20053;-85
2023/05/26 02:59:02;;;;;;;;;;;;;;;20.70;65.20;101482.31;4998776;28;20094;-85
2023/05/26 03:01:29;;;;;;;;;;;;;;;20.63;65.67;101487.63;5002850;28;19932;-85
2023/05/26 03:03:59;;;;;;;;;;;;;;;20.61;65.33;101484.25;5010714;28;20412;-84
2023/05/26 03:06:27;;;;;;;;;;;;;;;20.61;65.30;101486.97;5011729;28;20191;-84
2023/05/26 03:08:57;;;;;;;;;;;;;;;20.60;65.50;101482.56;5010416;28;19955;-84
2023/05/26 03:11:25;;;;;;;;;;;;;;;20.61;65.54;101484.25;4977937;28;20162;-86
2023/05/26 03:14:00;;;;;;;;;;;;;;;20.60;65.80;101487.97;4982643;28;20205;-84
2023/05/26 03:16:30;;;;;;;;;;;;;;;20.54;65.91;101483.28;4980306;28;19926;-83
2023/05/26 03:18:58;;;;;;;;;;;;;;;20.48;66.10;101486.69;4993076;28;20273;-84
2023/05/26 03:21:25;;;;;;;;;;;;;;;20.48;66.21;101489.38;4993707;28;19932;-84
2023/05/26 03:24:12;;;;;;;;;;;;;;;20.41;66.59;101483.88;4994513;28;20534;-83
2023/05/26 03:26:41;;;;;;;;;;;;;;;20.11;66.41;101441.63;5019493;28;20008;-83
2023/05/26 03:29:07;;;;;;;;;;;;;;;20.35;66.41;101489.97;5016186;28;20255;-83
2023/05/26 03:31:34;;;;;;;;;;;;;;;20.33;66.44;101494.72;5008928;28;20409;-83
2023/05/26 03:34:01;;;;;;;;;;;;;;;20.33;66.06;101496.56;5000461;28;19928;-84
2023/05/26 03:36:28;;;;;;;;;;;;;;;20.33;66.57;101497.41;5010287;28;20282;-84
2023/05/26 03:38:55;;;;;;;;;;;;;;;20.40;65.79;101497.53;5002696;28;19933;-85
2023/05/26 03:41:23;;;;;;;;;;;;;;;20.05;66.29;101445.88;4982888;28;19925;-84
2023/05/26 03:43:53;;;;;;;;;;;;;;;20.27;66.65;101496.28;4992356;28;20302;-84
2023/05/26 03:46:23;;;;;;;;;;;;;;;20.25;66.44;101490.22;4994353;28;19963;-85
2023/05/26 03:48:53;;;;;;;;;;;;;;;20.21;66.63;101494.28;4973715;28;20143;-84
2023/05/26 03:51:19;;;;;;;;;;;;;;;20.18;66.92;101494.66;5002041;28;19929;-84
2023/05/26 03:53:46;;;;;;;;;;;;;;;20.15;67.04;101496.88;5010794;28;19936;-84
2023/05/26 03:56:16;;;;;;;;;;;;;;;20.13;67.21;101496.19;5003434;28;19932;-84
2023/05/26 03:58:44;;;;;;;;;;;;;;;20.14;67.56;101496.00;5009656;28;19936;-85
2023/05/26 04:01:11;;;;;;;;;;;;;;;20.18;67.64;101497.34;5001582;28;20378;-84
2023/05/26 04:03:42;;;;;;;;;;;;;;;20.20;67.34;101497.16;4992460;28;20407;-84
2023/05/26 04:06:14;;;;;;;;;;;;;;;20.31;66.60;101506.69;5010281;28;19929;-84
2023/05/26 04:08:41;;;;;;;;;;;;;;;20.37;66.20;101508.69;5013665;28;20105;-85
2023/05/26 04:11:09;;;;;;;;;;;;;;;20.40;66.03;101508.31;5002613;28;20244;-84
2023/05/26 04:13:40;;;;;;;;;;;;;;;20.30;66.86;101505.03;5006816;28;20610;-82
2023/05/26 04:16:07;;;;;;;;;;;;;;;20.21;67.23;101507.75;5008785;28;19935;-84
2023/05/26 04:18:34;;;;;;;;;;;;;;;20.28;66.62;101508.72;4998087;28;19929;-84
2023/05/26 04:21:04;;;;;;;;;;;;;;;20.36;66.27;101505.13;5010555;28;19947;-83
2023/05/26 04:23:31;;;;;;;;;;;;;;;20.35;66.58;101499.94;5013373;28;20297;-84
2023/05/26 04:25:57;;;;;;;;;;;;;;;20.30;67.04;101496.94;5001216;28;20293;-84
2023/05/26 04:28:24;;;;;;;;;;;;;;;20.27;67.08;101503.53;4999514;28;20368;-84
2023/05/26 04:30:51;;;;;;;;;;;;;;;20.23;67.20;101502.19;5013045;28;19925;-85
2023/05/26 04:33:22;;;;;;;;;;;;;;;19.94;67.26;101454.38;5009149;28;19974;-86
2023/05/26 04:35:51;;;;;;;;;;;;;;;20.27;67.18;101509.75;5016418;28;19947;-84
2023/05/26 04:38:21;;;;;;;;;;;;;;;20.33;66.38;101512.75;5006610;28;19978;-85
2023/05/26 04:40:50;;;;;;;;;;;;;;;20.02;66.01;101462.38;4989019;28;20288;-84
2023/05/26 04:43:20;;;;;;;;;;;;;;;20.37;66.01;101514.09;5003109;28;19925;-84
2023/05/26 04:45:47;;;;;;;;;;;;;;;20.39;65.93;101518.28;4993251;28;20291;-85
2023/05/26 04:48:20;;;;;;;;;;;;;;;20.47;65.65;101520.91;4992443;28;19983;-85
2023/05/26 04:50:53;;;;;;;;;;;;;;;20.51;65.60;101524.09;4984683;28;20015;-84
2023/05/26 04:53:22;;;;;;;;;;;;;;;20.48;65.77;101521.75;4971708;28;19983;-84
2023/05/26 04:55:52;;;;;;;;;;;;;;;20.49;65.59;101520.75;5010250;28;19979;-85
2023/05/26 04:58:18;;;;;;;;;;;;;;;20.55;65.36;101522.75;5014936;28;19936;-85
2023/05/26 05:00:50;;;;;;;;;;;;;;;20.61;65.06;101527.44;5000539;28;20024;-84
2023/05/26 05:03:26;;;;;;;;;;;;;;;20.36;64.91;101480.03;5009772;28;19970;-83
2023/05/26 05:05:53;;;;;;;;;;;;;;;20.72;64.27;101519.91;4995593;28;19979;-83
2023/05/26 05:08:20;;;;;;;;;;;;;;;20.74;64.55;101526.81;5007233;28;20386;-84
2023/05/26 05:10:49;;;;;;;;;;;;;;;20.77;64.03;101525.63;4974674;28;19933;-84
2023/05/26 05:13:16;;;;;;;;;;;;;;;20.76;64.27;101527.47;4995494;28;19929;-84
2023/05/26 05:15:46;;;;;;;;;;;;;;;20.85;64.29;101518.31;4988206;28;20421;-83
2023/05/26 05:18:25;;;;;;;;;;;;;;;20.55;64.23;101471.50;4960605;28;19925;-84
2023/05/26 05:20:52;;;;;;;;;;;;;;;20.89;63.52;101516.91;4983160;28;19925;-84
2023/05/26 05:23:19;;;;;;;;;;;;;;;20.91;63.87;101522.13;4994269;28;20386;-85
2023/05/26 05:25:46;;;;;;;;;;;;;;;21.02;63.28;101524.41;5008082;28;19925;-85
2023/05/26 05:28:13;;;;;;;;;;;;;;;21.00;63.55;101521.03;5013717;28;20038;-85
2023/05/26 05:30:40;;;;;;;;;;;;;;;21.06;63.44;101530.25;5013373;28;19990;-85
2023/05/26 05:33:08;;;;;;;;;;;;;;;21.11;63.84;101525.13;5003184;28;20374;-84
2023/05/26 05:35:35;;;;;;;;;;;;;;;21.13;64.11;101521.22;4991068;28;20158;-84
2023/05/26 05:38:03;;;;;;;;;;;;;;;21.21;63.55;101525.72;5012824;28;20007;-84
2023/05/26 05:40:30;;;;;;;;;;;;;;;21.27;63.35;101524.16;4997058;28;19925;-84
2023/05/26 05:42:57;;;;;;;;;;;;;;;21.29;63.94;101520.25;5019472;28;20393;-85
2023/05/26 05:45:27;;;;;;;;;;;;;;;21.34;63.47;101522.38;5012105;28;20282;-84
2023/05/26 05:47:53;;;;;;;;;;;;;;;21.47;63.21;101522.59;5003099;28;20271;-83
2023/05/26 05:50:20;;;;;;;;;;;;;;;21.61;62.42;101526.34;5007392;28;20259;-84
2023/05/26 05:52:47;;;;;;;;;;;;;;;21.67;61.79;101528.28;5009237;28;19929;-84
2023/05/26 05:55:14;;;;;;;;;;;;;;;21.65;61.93;101534.91;4996762;28;19932;-85
2023/05/26 05:57:41;;;;;;;;;;;;;;;21.66;62.31;101529.31;5020595;28;19928;-82
2023/05/26 06:03:01;;;;;;;;;;;;;;;21.54;61.67;101504.63;4986962;28;20141;-84
2023/05/26 06:05:32;;;;;;;;;;;;;;;21.97;61.64;101556.13;5005493;28;19932;-85
2023/05/26 06:07:59;;;;;;;;;;;;;;;22.00;61.28;101556.78;5017422;28;20178;-85
2023/05/26 06:10:26;;;;;;;;;;;;;;;22.11;60.77;101556.28;4993864;28;19925;-85
2023/05/26 06:12:57;;;;;;;;;;;;;;;21.79;60.64;101504.31;5001028;28;19925;-84
2023/05/26 06:15:29;;;;;;;;;;;;;;;22.22;60.07;101555.84;5009024;28;20269;-86
2023/05/26 06:17:56;;;;;;;;;;;;;;;22.15;60.08;101557.59;5004202;28;19925;-85
2023/05/26 06:20:23;;;;;;;;;;;;;;;22.15;60.09;101563.00;5017092;28;19925;-84
2023/05/26 06:22:49;;;;;;;;;;;;;;;22.21;59.80;101565.00;5016707;28;19929;-85
2023/05/26 06:25:16;;;;;;;;;;;;;;;22.29;59.82;101558.63;5015374;28;20381;-84
2023/05/26 06:27:43;;;;;;;;;;;;;;;22.32;59.75;101561.78;5021784;28;19983;-84
2023/05/26 06:30:10;;;;;;;;;;;;;;;22.23;60.19;101562.91;4999628;28;20146;-85
2023/05/26 06:32:37;;;;;;;;;;;;;;;22.24;60.58;101566.47;5009868;28;19925;-84
2023/05/26 06:35:07;;;;;;;;;;;;;;;22.26;60.53;101572.50;5003071;28;19929;-84
2023/05/26 06:37:34;;;;;;;;;;;;;;;22.26;60.44;101575.22;5022237;28;20640;-85
2023/05/26 06:40:04;;;;;;;;;;;;;;;22.39;59.98;101576.22;4991016;28;19955;-85
2023/05/26 06:42:35;;;;;;;;;;;;;;;22.34;60.05;101578.66;5005387;28;20232;-84
2023/05/26 06:45:02;;;;;;;;;;;;;;;22.25;60.54;101584.38;4996379;28;20404;-84
2023/05/26 06:47:28;;;;;;;;;;;;;;;22.17;60.36;101578.00;4990068;28;19940;-85
2023/05/26 06:49:55;;;;;;;;;;;;;;;22.22;61.11;101577.47;5005266;28;20349;-85
2023/05/26 06:52:29;;;;;;;;;;;;;;;22.30;60.30;101580.06;4998123;28;19925;-84
2023/05/26 06:55:01;;;;;;;;;;;;;;;22.42;59.66;101571.44;4992159;28;20197;-85
2023/05/26 06:57:28;;;;;;;;;;;;;;;22.44;59.72;101561.28;5004862;28;19929;-83
2023/05/26 06:59:57;;;;;;;;;;;;;;;22.06;60.24;101528.97;5002471;28;19976;-84
2023/05/26 07:02:30;;;;;;;;;;;;;;;22.33;60.78;101568.88;5008407;28;19925;-85
2023/05/26 07:04:57;;;;;;;;;;;;;;;22.45;60.60;101560.25;5014194;28;20306;-85
2023/05/26 07:07:30;;;;;;;;;;;;;;;22.61;60.23;101560.84;5009421;28;19947;-84
2023/05/26 07:10:03;;;;;;;;;;;;;;;22.69;59.82;101559.03;5006129;28;20011;-84
2023/05/26 07:12:31;;;;;;;;;;;;;;;22.67;59.58;101564.66;5016159;28;19944;-84
2023/05/26 07:15:01;;;;;;;;;;;;;;;22.70;58.69;101566.16;4996949;28;20100;-83
2023/05/26 07:17:37;;;;;;;;;;;;;;;22.71;59.29;101563.22;5008558;28;19929;-83
2023/05/26 07:20:04;;;;;;;;;;;;;;;22.70;59.42;101566.97;5014540;28;20231;-84
2023/05/26 07:22:35;;;;;;;;;;;;;;;22.76;59.38;101565.34;5002444;28;20027;-83
2023/05/26 07:25:07;;;;;;;;;;;;;;;22.85;59.11;101560.66;5014510;28;19932;-85
2023/05/26 07:27:36;;;;;;;;;;;;;;;22.81;58.59;101546.66;5010777;28;19967;-85
2023/05/26 07:30:06;;;;;;;;;;;;;;;22.96;58.08;101555.56;5011870;28;19929;-84
2023/05/26 07:32:33;;;;;;;;;;;;;;;22.97;58.51;101553.69;4988505;28;20116;-85
2023/05/26 07:35:00;;;;;;;;;;;;;;;23.19;57.19;101549.94;4999547;28;19925;-83
2023/05/26 07:37:27;;;;;;;;;;;;;;;23.24;57.22;101552.88;5007686;28;20629;-83
2023/05/26 07:39:53;;;;;;;;;;;;;;;23.14;58.01;101552.41;4984864;28;19925;-84
2023/05/26 07:42:20;;;;;;;;;;;;;;;23.16;57.83;101550.34;4989579;28;19925;-84
2023/05/26 07:44:49;;;;;;;;;;;;;;;23.24;57.38;101552.06;4996415;28;20615;-83
2023/05/26 07:47:17;;;;;;;;;;;;;;;23.20;57.59;101557.00;4997014;28;20015;-84
2023/05/26 07:49:47;;;;;;;;;;;;;;;23.32;56.92;101559.19;4974979;28;20035;-81
2023/05/26 07:52:21;;;;;;;;;;;;;;;23.08;56.82;101501.72;4968103;28;20397;-83
2023/05/26 07:54:47;;;;;;;;;;;;;;;23.47;56.04;101562.63;5013115;28;19925;-85
2023/05/26 07:57:14;;;;;;;;;;;;;;;23.50;56.26;101556.81;4991297;28;19935;-84
2023/05/26 07:59:54;;;;;;;;;;;;;;;23.53;56.31;101555.59;5006917;28;19933;-81
2023/05/26 08:02:21;;;;;;;;;;;;;;;23.45;56.65;101553.88;5014916;28;20321;-84
2023/05/26 08:04:47;;;;;;;;;;;;;;;23.52;56.21;101552.03;4998070;28;20345;-84
2023/05/26 08:07:14;;;;;;;;;;;;;;;23.46;56.78;101550.94;4997997;28;20124;-84
2023/05/26 08:09:44;;;;;;;;;;;;;;;23.46;56.51;101550.13;4968752;28;20140;-85
2023/05/26 08:12:11;;;;;;;;;;;;;;;23.50;56.85;101543.28;4981117;28;20133;-84
2023/05/26 08:14:38;;;;;;;;;;;;;;;23.51;57.92;101539.50;4977027;28;20028;-83
2023/05/26 08:17:07;;;;;;;;;;;;;;;23.68;56.78;101532.72;4995134;28;20167;-83
2023/05/26 08:19:34;;;;;;;;;;;;;;;23.76;56.87;101541.75;4993290;28;20234;-84
2023/05/26 08:22:05;;;;;;;;;;;;;;;23.82;56.61;101540.97;4968050;28;19936;-84
2023/05/26 08:24:37;;;;;;;;;;;;;;;23.84;57.12;101552.47;4979932;28;20248;-84
2023/05/26 08:27:08;;;;;;;;;;;;;;;23.87;56.69;101538.50;4994723;28;19980;-84
2023/05/26 08:29:38;;;;;;;;;;;;;;;23.93;56.93;101540.38;4976921;28;20367;-83
2023/05/26 08:32:12;;;;;;;;;;;;;;;23.70;56.84;101507.31;4972788;28;20386;-83
2023/05/26 08:34:42;;;;;;;;;;;;;;;24.12;56.17;101549.63;4980211;28;20303;-83
2023/05/26 08:37:11;;;;;;;;;;;;;;;24.18;56.07;101543.41;4998898;28;19932;-84
2023/05/26 08:39:38;;;;;;;;;;;;;;;24.27;55.87;101535.91;5002691;28;20309;-84
2023/05/26 08:42:06;;;;;;;;;;;;;;;24.31;56.06;101542.59;4994353;28;20279;-83
2023/05/26 08:44:33;;;;;;;;;;;;;;;24.52;55.02;101544.38;4987551;28;20365;-84
2023/05/26 08:47:02;;;;;;;;;;;;;;;24.54;55.16;101545.00;4995012;28;20355;-83
2023/05/26 08:49:41;;;;;;;;;;;;;;;24.45;55.90;101538.88;4986062;28;19929;-84
2023/05/26 08:52:09;;;;;;;;;;;;;;;24.45;56.67;101538.88;5009721;28;20370;-83
2023/05/26 08:54:36;;;;;;;;;;;;;;;24.55;55.94;101541.25;5013576;28;19925;-83
2023/05/26 08:57:08;;;;;;;;;;;;;;;24.66;55.75;101540.63;5011909;28;19935;-82
2023/05/26 08:59:35;;;;;;;;;;;;;;;24.71;55.42;101548.13;5021474;28;20324;-84
2023/05/26 09:02:05;;;;;;;;;;;;;;;24.90;54.24;101547.34;5005948;28;19928;-83
2023/05/26 09:04:37;;;;;;;;;;;;;;;24.84;54.98;101550.88;5001170;28;20014;-84
2023/05/26 09:07:06;;;;;;;;;;;;;;;24.84;55.24;101545.44;5019786;28;20289;-83
2023/05/26 09:09:54;;;;;;;;;;;;;;;24.95;54.49;101539.41;4980717;28;19928;-83
2023/05/26 09:12:30;;;;;;;;;;;;;;;25.09;54.32;101540.22;4994655;28;19929;-84
2023/05/26 09:14:56;;;;;;;;;;;;;;;25.12;54.25;101539.81;4986346;28;19932;-84
2023/05/26 09:17:24;;;;;;;;;;;;;;;25.17;54.56;101536.47;5001159;28;20311;-85
2023/05/26 09:19:57;;;;;;;;;;;;;;;25.29;53.91;101529.38;4993132;28;19940;-84
2023/05/26 09:22:30;;;;;;;;;;;;;;;25.35;53.15;101528.50;4973077;28;19975;-85
2023/05/26 09:24:57;;;;;;;;;;;;;;;25.25;53.90;101527.28;5000451;28;19924;-84
2023/05/26 09:27:26;;;;;;;;;;;;;;;25.35;54.47;101527.69;4999404;28;19939;-84
2023/05/26 09:30:00;;;;;;;;;;;;;;;25.48;53.34;101532.25;5009134;28;19994;-85
2023/05/26 09:32:29;;;;;;;;;;;;;;;25.59;53.20;101537.03;5007767;28;20409;-85
2023/05/26 09:34:58;;;;;;;;;;;;;;;25.59;53.69;101532.44;5012989;28;20264;-84
2023/05/26 09:37:28;;;;;;;;;;;;;;;25.70;53.53;101528.19;5007219;28;20370;-84
2023/05/26 09:39:55;;;;;;;;;;;;;;;25.88;51.21;101534.88;4997508;28;19961;-84
2023/05/26 09:42:22;;;;;;;;;;;;;;;26.05;50.52;101532.50;4983848;28;19929;-85
2023/05/26 09:44:51;;;;;;;;;;;;;;;25.97;51.78;101539.00;4982157;28;19925;-84
2023/05/26 09:47:21;;;;;;;;;;;;;;;26.08;50.55;101538.34;4995832;28;19925;-85
2023/05/26 09:49:48;;;;;;;;;;;;;;;26.05;51.10;101524.34;4989464;28;20172;-85
2023/05/26 09:52:15;;;;;;;;;;;;;;;26.18;49.22;101525.09;5016067;28;20232;-83
2023/05/26 09:54:45;;;;;;;;;;;;;;;26.21;50.05;101530.13;5010086;28;19951;-84
2023/05/26 09:57:14;;;;;;;;;;;;;;;26.31;49.02;101532.38;5018598;28;20055;-84
2023/05/26 09:59:42;;;;;;;;;;;;;;;26.45;49.42;101527.66;5011762;28;20145;-85
2023/05/26 10:02:17;;;;;;;;;;;;;;;26.64;48.70;101518.56;5009341;28;20079;-84
2023/05/26 10:04:45;;;;;;;;;;;;;;;26.59;49.28;101518.38;5010531;28;19933;-83
2023/05/26 10:07:12;;;;;;;;;;;;;;;26.79;48.82;101522.84;5010647;28;19932;-83
2023/05/26 10:09:43;;;;;;;;;;;;;;;26.59;49.46;101468.53;5001198;28;19932;-84
2023/05/26 10:12:12;;;;;;;;;;;;;;;26.90;49.02;101516.69;4992998;28;19929;-83
2023/05/26 10:14:41;;;;;;;;;;;;;;;26.79;47.69;101461.03;4979876;28;19925;-83
2023/05/26 10:17:08;;;;;;;;;;;;;;;27.09;47.40;101512.13;4990771;28;19952;-83
2023/05/26 10:19:35;;;;;;;;;;;;;;;27.19;47.78;101511.63;4979947;28;20225;-83
2023/05/26 10:22:20;;;;;;;;;;;;;;;27.29;47.18;101506.50;4988142;28;19929;-84
2023/05/26 10:24:53;;;;;;;;;;;;;;;27.50;46.86;101502.47;5001489;28;19998;-83
2023/05/26 10:27:23;;;;;;;;;;;;;;;27.58;45.86;101504.91;4995491;28;20497;-83
2023/05/26 10:30:08;;;;;;;;;;;;;;;27.54;45.92;101468.25;4992604;28;19925;-83
2023/05/26 10:32:41;;;;;;;;;;;;;;;27.99;45.55;101510.72;5015314;28;19925;-83
2023/05/26 10:35:28;;;;;;;;;;;;;;;27.98;45.31;101503.59;5001952;28;20144;-83
2023/05/26 10:38:01;;;;;;;;;;;;;;;28.06;45.47;101506.00;4987279;28;20357;-84
2023/05/26 10:40:30;;;;;;;;;;;;;;;28.20;45.19;101503.94;5009471;28;20353;-83
2023/05/26 10:43:02;;;;;;;;;;;;;;;28.49;45.16;101505.00;5004645;28;20024;-83
2023/05/26 10:45:29;;;;;;;;;;;;;;;28.61;44.66;101494.91;5012096;28;20373;-83
2023/05/26 10:48:24;;;;;;;;;;;;;;;28.60;44.22;101493.25;5009383;28;20211;-83
2023/05/26 10:50:54;;;;;;;;;;;;;;;28.83;44.48;101500.66;4991461;28;20017;-83
2023/05/26 10:53:21;;;;;;;;;;;;;;;28.93;43.27;101494.59;4988829;28;20389;-83
2023/05/26 10:55:56;;;;;;;;;;;;;;;28.96;43.06;101491.41;5005586;28;19925;-83
2023/05/26 10:58:33;;;;;;;;;;;;;;;29.11;43.03;101483.56;5020456;28;19925;-83
2023/05/26 11:01:07;;;;;;;;;;;;;;;29.16;43.15;101488.34;5018895;28;19932;-83
2023/05/26 11:07:20;;;;;;;;;;;;;;;29.54;42.70;101476.88;5005602;28;19928;-81
2023/05/26 11:09:56;;;;;;;;;;;;;;;29.79;42.09;101473.00;5008321;28;20108;-84
2023/05/26 11:12:32;;;;;;;;;;;;;;;30.05;42.48;101482.50;5004097;28;19955;-82
2023/05/26 11:15:20;;;;;;;;;;;;;;;30.14;41.20;101477.47;5004437;28;19924;-82
2023/05/26 11:17:56;;;;;;;;;;;;;;;30.26;41.08;101481.03;5010946;28;20023;-84
2023/05/26 11:20:23;;;;;;;;;;;;;;;30.39;40.64;101475.25;5017597;28;19929;-84
2023/05/26 11:22:55;;;;;;;;;;;;;;;30.26;39.10;101430.91;5021851;28;19924;-83
2023/05/26 11:25:23;;;;;;;;;;;;;;;30.65;38.56;101468.25;5008619;28;20201;-83
2023/05/26 11:27:50;;;;;;;;;;;;;;;30.78;39.12;101471.72;5001131;28;19925;-84
2023/05/26 11:30:20;;;;;;;;;;;;;;;30.61;39.08;101471.72;5016013;28;19925;-84
2023/05/26 11:32:47;;;;;;;;;;;;;;;30.75;39.21;101464.00;5028092;28;20016;-85
2023/05/26 11:35:20;;;;;;;;;;;;;;;30.73;39.09;101455.22;5006327;28;19935;-83
2023/05/26 11:37:47;;;;;;;;;;;;;;;30.81;38.51;101461.09;4987471;28;20029;-83
2023/05/26 11:40:16;;;;;;;;;;;;;;;30.71;39.05;101425.34;5002661;28;19932;-83
2023/05/26 11:42:51;;;;;;;;;;;;;;;30.74;38.22;101385.63;5017814;28;19940;-83
2023/05/26 11:45:18;;;;;;;;;;;;;;;31.29;38.27;101462.38;5014974;28;20063;-82
2023/05/26 11:47:49;;;;;;;;;;;;;;;31.42;39.01;101455.69;5009218;28;19927;-83
2023/05/26 11:50:18;;;;;;;;;;;;;;;31.47;37.98;101457.69;4998279;28;20118;-83
2023/05/26 11:52:49;;;;;;;;;;;;;;;31.21;37.98;101405.19;4995458;28;19940;-82
2023/05/26 11:55:19;;;;;;;;;;;;;;;31.63;37.75;101450.44;5003214;28;20115;-83
2023/05/26 11:57:47;;;;;;;;;;;;;;;31.76;37.69;101444.56;5002222;28;19925;-83
2023/05/26 12:00:18;;;;;;;;;;;;;;;31.90;37.40;101445.00;4998492;28;20133;-82
2023/05/26 12:02:46;;;;;;;;;;;;;;;31.93;35.86;101437.06;5009038;28;20382;-84
2023/05/26 12:05:16;;;;;;;;;;;;;;;31.85;35.39;101406.50;4998831;28;19979;-82
2023/05/26 12:08:00;;;;;;;;;;;;;;;32.02;36.17;101439.34;5024580;28;19928;-84
2023/05/26 12:10:33;;;;;;;;;;;;;;;32.21;35.62;101446.16;4987958;28;20232;-82
2023/05/26 12:13:02;;;;;;;;;;;;;;;32.28;34.53;101432.19;4984751;28;19925;-83
2023/05/26 12:15:29;;;;;;;;;;;;;;;32.43;34.31;101429.56;4997318;28;20180;-83
2023/05/26 12:17:57;;;;;;;;;;;;;;;32.62;34.41;101434.69;4976847;28;19929;-83
2023/05/26 12:20:40;;;;;;;;;;;;;;;32.76;35.07;101435.88;4993371;28;20581;-83
2023/05/26 12:23:31;;;;;;;;;;;;;;;32.88;34.44;101422.75;4976503;28;19929;-83
2023/05/26 12:26:20;;;;;;;;;;;;;;;33.05;33.67;101428.09;4992069;28;21074;-82
2023/05/26 12:29:06;;;;;;;;;;;;;;;33.23;33.37;101428.72;5004306;28;19924;-83
2023/05/26 12:31:40;;;;;;;;;;;;;;;33.38;32.51;101421.38;5005291;28;19925;-84
2023/05/26 12:34:23;;;;;;;;;;;;;;;33.40;32.49;101413.69;4992933;28;20356;-83
2023/05/26 12:36:51;;;;;;;;;;;;;;;33.52;33.15;101415.34;5012237;28;19931;-83
2023/05/26 12:39:26;;;;;;;;;;;;;;;33.53;33.33;101414.25;5008320;28;19979;-81
2023/05/26 12:41:54;;;;;;;;;;;;;;;33.35;32.86;101410.91;4992927;28;20181;-83
2023/05/26 12:44:24;;;;;;;;;;;;;;;33.41;33.24;101406.25;4964452;28;20176;-81
2023/05/26 12:46:51;;;;;;;;;;;;;;;33.32;33.79;101405.94;4986905;28;19979;-81
2023/05/26 12:49:18;;;;;;;;;;;;;;;33.45;33.19;101398.25;5004835;28;19932;-82
2023/05/26 12:51:45;;;;;;;;;;;;;;;33.45;33.23;101401.00;5018816;28;20015;-83
2023/05/26 12:54:20;;;;;;;;;;;;;;;33.52;33.29;101402.44;5016400;28;20359;-81
2023/05/26 12:56:52;;;;;;;;;;;;;;;33.47;33.85;101396.88;5014922;28;19932;-81